This is the latest recevied weather packets stored in our database for station/object IW2OBX-10. If no packets are shown the sender has not sent any weather packets the latest 10 day(s).
| Time | Temp. | Humidity | Pressure | Rain* | Wind** | Luminosity | Snow |
|---|---|---|---|---|---|---|---|
| 1778322487 | 28.89° C | 29% | 1016.4 hPa | - | - | - | - |
| 1778321586 | 30.56° C | 25% | 1016.4 hPa | - | - | - | - |
| 1778320684 | 35.56° C | 22% | 1016.5 hPa | - | - | - | - |
| 1778319782 | 33.89° C | 24% | 1016.7 hPa | - | - | - | - |
| 1778318881 | 33.89° C | 24% | 1016.8 hPa | - | - | - | - |
| 1778317979 | 34.44° C | 24% | 1016.9 hPa | - | - | - | - |
| 1778317078 | 33.89° C | 25% | 1017.1 hPa | - | - | - | - |
| 1778316177 | 33.33° C | 26% | 1017.2 hPa | - | - | - | - |
| 1778315275 | 31.67° C | 28% | 1017.4 hPa | - | - | - | - |
| 1778314374 | 30.56° C | 31% | 1017.5 hPa | - | - | - | - |
| 1778313472 | 28.89° C | 33% | 1017.7 hPa | - | - | - | - |
| 1778312571 | 28.33° C | 35% | 1017.7 hPa | - | - | - | - |
| 1778311669 | 26.11° C | 40% | 1017.9 hPa | - | - | - | - |
| 1778310768 | 29.44° C | 34% | 1017.8 hPa | - | - | - | - |
| 1778309866 | 28.33° C | 36% | 1017.8 hPa | - | - | - | - |
| 1778308963 | 23.89° C | 46% | 1018 hPa | - | - | - | - |
| 1778308062 | 24.44° C | 45% | 1017.9 hPa | - | - | - | - |
| 1778307162 | 25° C | 44% | 1018 hPa | - | - | - | - |
| 1778306260 | 23.89° C | 46% | 1018.3 hPa | - | - | - | - |
| 1778305358 | 22.22° C | 51% | 1018.3 hPa | - | - | - | - |
| 1778304457 | 20.56° C | 56% | 1018.1 hPa | - | - | - | - |
| 1778303556 | 17.78° C | 66% | 1018 hPa | - | - | - | - |
| 1778302655 | 15° C | 72% | 1018 hPa | - | - | - | - |
| 1778301755 | 15° C | 72% | 1017.8 hPa | - | - | - | - |
| 1778300854 | 15° C | 72% | 1017.6 hPa | - | - | - | - |
* Rain since midnight (hover to see other rain measurements)
** Current wind speed in m/s (hover to see current wind gust speed)